sensor_id;sensor_type;location;lat;lon;timestamp;temperature;humidity
3628;DHT22;1830;49.000;12.074;2023-03-05T00:00:40;1.10;99.90
3628;DHT22;1830;49.000;12.074;2023-03-05T00:03:07;1.10;99.90
3628;DHT22;1830;49.000;12.074;2023-03-05T00:05:34;1.20;99.90
3628;DHT22;1830;49.000;12.074;2023-03-05T00:08:01;0.90;99.90
3628;DHT22;1830;49.000;12.074;2023-03-05T06:14:47;0.50;99.90
3628;DHT22;1830;49.000;12.074;2023-03-05T06:17:13;0.60;99.90
3628;DHT22;1830;49.000;12.074;2023-03-05T06:19:40;0.60;99.90
3628;DHT22;1830;49.000;12.074;2023-03-05T06:22:07;0.60;99.90
3628;DHT22;1830;49.000;12.074;2023-03-05T06:24:34;0.60;99.90
3628;DHT22;1830;49.000;12.074;2023-03-05T06:27:00;0.70;99.90
3628;DHT22;1830;49.000;12.074;2023-03-05T06:29:27;0.80;99.90
3628;DHT22;1830;49.000;12.074;2023-03-05T06:31:55;0.80;99.90
3628;DHT22;1830;49.000;12.074;2023-03-05T06:34:22;0.70;99.90
3628;DHT22;1830;49.000;12.074;2023-03-05T06:36:49;0.70;99.90
3628;DHT22;1830;49.000;12.074;2023-03-05T06:39:16;0.70;99.90
3628;DHT22;1830;49.000;12.074;2023-03-05T06:41:43;0.70;99.90
3628;DHT22;1830;49.000;12.074;2023-03-05T06:44:10;0.60;99.90
3628;DHT22;1830;49.000;12.074;2023-03-05T06:46:37;0.70;99.90
3628;DHT22;1830;49.000;12.074;2023-03-05T06:49:06;0.80;99.90
3628;DHT22;1830;49.000;12.074;2023-03-05T06:51:35;0.80;99.90
3628;DHT22;1830;49.000;12.074;2023-03-05T06:54:05;0.70;99.90
3628;DHT22;1830;49.000;12.074;2023-03-05T06:56:34;0.70;99.90
3628;DHT22;1830;49.000;12.074;2023-03-05T06:59:02;0.70;99.90
3628;DHT22;1830;49.000;12.074;2023-03-05T07:01:29;0.80;99.90
3628;DHT22;1830;49.000;12.074;2023-03-05T07:03:56;0.80;99.90
3628;DHT22;1830;49.000;12.074;2023-03-05T07:06:26;0.80;99.90
3628;DHT22;1830;49.000;12.074;2023-03-05T07:08:54;0.80;99.90
3628;DHT22;1830;49.000;12.074;2023-03-05T07:11:22;0.80;99.90
3628;DHT22;1830;49.000;12.074;2023-03-05T07:13:49;0.90;99.90
3628;DHT22;1830;49.000;12.074;2023-03-05T07:16:18;1.00;99.90
3628;DHT22;1830;49.000;12.074;2023-03-05T07:18:47;1.00;99.90
3628;DHT22;1830;49.000;12.074;2023-03-05T07:21:16;0.90;99.90
3628;DHT22;1830;49.000;12.074;2023-03-05T07:23:45;1.00;99.90
3628;DHT22;1830;49.000;12.074;2023-03-05T07:26:13;1.00;99.90
3628;DHT22;1830;49.000;12.074;2023-03-05T07:28:40;1.00;99.90
3628;DHT22;1830;49.000;12.074;2023-03-05T07:31:10;1.00;99.90
3628;DHT22;1830;49.000;12.074;2023-03-05T07:33:37;0.90;99.90
3628;DHT22;1830;49.000;12.074;2023-03-05T07:36:06;0.90;99.90
3628;DHT22;1830;49.000;12.074;2023-03-05T07:38:33;1.00;99.90
3628;DHT22;1830;49.000;12.074;2023-03-05T07:41:03;1.00;99.90
3628;DHT22;1830;49.000;12.074;2023-03-05T07:43:30;1.10;99.90
3628;DHT22;1830;49.000;12.074;2023-03-05T07:45:57;1.00;99.90
3628;DHT22;1830;49.000;12.074;2023-03-05T07:48:24;1.10;99.90
3628;DHT22;1830;49.000;12.074;2023-03-05T07:50:59;1.00;99.90
3628;DHT22;1830;49.000;12.074;2023-03-05T07:53:26;1.10;99.90
3628;DHT22;1830;49.000;12.074;2023-03-05T07:55:53;1.10;99.90
3628;DHT22;1830;49.000;12.074;2023-03-05T07:58:21;1.10;99.90
3628;DHT22;1830;49.000;12.074;2023-03-05T08:00:48;1.10;99.90
3628;DHT22;1830;49.000;12.074;2023-03-05T08:03:15;1.10;99.90
3628;DHT22;1830;49.000;12.074;2023-03-05T08:05:42;1.30;99.90
3628;DHT22;1830;49.000;12.074;2023-03-05T08:08:09;1.30;99.90
3628;DHT22;1830;49.000;12.074;2023-03-05T08:10:36;1.20;99.90
3628;DHT22;1830;49.000;12.074;2023-03-05T08:13:03;1.30;99.90
3628;DHT22;1830;49.000;12.074;2023-03-05T08:15:31;1.40;99.90
3628;DHT22;1830;49.000;12.074;2023-03-05T08:17:58;1.50;99.90
3628;DHT22;1830;49.000;12.074;2023-03-05T08:20:25;1.60;99.90
3628;DHT22;1830;49.000;12.074;2023-03-05T08:22:52;1.50;99.90
3628;DHT22;1830;49.000;12.074;2023-03-05T08:25:19;1.60;99.90
3628;DHT22;1830;49.000;12.074;2023-03-05T08:27:46;1.60;99.90
3628;DHT22;1830;49.000;12.074;2023-03-05T08:30:16;1.60;99.90
3628;DHT22;1830;49.000;12.074;2023-03-05T08:32:44;1.60;99.90
3628;DHT22;1830;49.000;12.074;2023-03-05T08:35:11;1.50;99.90
3628;DHT22;1830;49.000;12.074;2023-03-05T08:37:38;1.60;99.90
3628;DHT22;1830;49.000;12.074;2023-03-05T08:40:06;1.60;99.90
3628;DHT22;1830;49.000;12.074;2023-03-05T08:42:33;1.60;99.90
3628;DHT22;1830;49.000;12.074;2023-03-05T08:44:59;1.60;99.90
3628;DHT22;1830;49.000;12.074;2023-03-05T08:47:26;1.50;99.90
3628;DHT22;1830;49.000;12.074;2023-03-05T08:49:55;1.60;99.90
3628;DHT22;1830;49.000;12.074;2023-03-05T08:52:23;1.70;99.90
3628;DHT22;1830;49.000;12.074;2023-03-05T08:54:51;1.60;99.90
3628;DHT22;1830;49.000;12.074;2023-03-05T08:57:18;1.50;99.90
3628;DHT22;1830;49.000;12.074;2023-03-05T08:59:45;1.60;99.90
3628;DHT22;1830;49.000;12.074;2023-03-05T09:02:12;1.40;99.90
3628;DHT22;1830;49.000;12.074;2023-03-05T09:04:39;1.50;99.90
3628;DHT22;1830;49.000;12.074;2023-03-05T09:07:07;1.60;99.90
3628;DHT22;1830;49.000;12.074;2023-03-05T09:09:35;1.70;99.90
3628;DHT22;1830;49.000;12.074;2023-03-05T09:12:02;1.80;99.90
3628;DHT22;1830;49.000;12.074;2023-03-05T09:14:29;1.80;99.90
3628;DHT22;1830;49.000;12.074;2023-03-05T09:16:57;1.80;99.90
3628;DHT22;1830;49.000;12.074;2023-03-05T09:19:23;1.60;99.90
3628;DHT22;1830;49.000;12.074;2023-03-05T09:21:51;1.60;99.90
3628;DHT22;1830;49.000;12.074;2023-03-05T09:24:20;1.90;99.90
3628;DHT22;1830;49.000;12.074;2023-03-05T09:26:46;2.10;99.90
3628;DHT22;1830;49.000;12.074;2023-03-05T09:29:13;2.10;99.90
3628;DHT22;1830;49.000;12.074;2023-03-05T09:31:40;2.10;99.90
3628;DHT22;1830;49.000;12.074;2023-03-05T09:34:10;2.20;99.90
3628;DHT22;1830;49.000;12.074;2023-03-05T09:36:37;2.10;99.90
3628;DHT22;1830;49.000;12.074;2023-03-05T09:39:04;2.10;99.90
3628;DHT22;1830;49.000;12.074;2023-03-05T09:41:46;2.20;99.90
3628;DHT22;1830;49.000;12.074;2023-03-05T09:44:23;2.40;99.90
3628;DHT22;1830;49.000;12.074;2023-03-05T09:46:53;2.40;99.90
3628;DHT22;1830;49.000;12.074;2023-03-05T09:49:31;2.40;99.90
3628;DHT22;1830;49.000;12.074;2023-03-05T09:52:02;2.40;99.90
3628;DHT22;1830;49.000;12.074;2023-03-05T09:54:36;2.60;99.90
3628;DHT22;1830;49.000;12.074;2023-03-05T09:57:09;2.80;99.90
3628;DHT22;1830;49.000;12.074;2023-03-05T09:59:45;2.80;99.90
3628;DHT22;1830;49.000;12.074;2023-03-05T10:02:17;2.80;99.90
3628;DHT22;1830;49.000;12.074;2023-03-05T10:04:49;2.60;99.90
3628;DHT22;1830;49.000;12.074;2023-03-05T10:07:21;2.40;99.90
3628;DHT22;1830;49.000;12.074;2023-03-05T10:09:54;2.40;99.90
3628;DHT22;1830;49.000;12.074;2023-03-05T10:12:26;2.60;99.90
3628;DHT22;1830;49.000;12.074;2023-03-05T10:14:57;2.60;99.90
3628;DHT22;1830;49.000;12.074;2023-03-05T10:17:50;2.60;99.90
3628;DHT22;1830;49.000;12.074;2023-03-05T10:20:48;2.50;99.90
3628;DHT22;1830;49.000;12.074;2023-03-05T10:23:29;2.40;99.90
3628;DHT22;1830;49.000;12.074;2023-03-05T10:26:05;2.50;99.90
3628;DHT22;1830;49.000;12.074;2023-03-05T10:28:42;2.60;99.90
3628;DHT22;1830;49.000;12.074;2023-03-05T10:37:06;2.70;99.90
3628;DHT22;1830;49.000;12.074;2023-03-05T10:39:48;2.70;99.90
3628;DHT22;1830;49.000;12.074;2023-03-05T10:42:24;2.60;99.90
3628;DHT22;1830;49.000;12.074;2023-03-05T10:44:56;2.80;99.90
3628;DHT22;1830;49.000;12.074;2023-03-05T10:47:27;3.00;99.90
3628;DHT22;1830;49.000;12.074;2023-03-05T10:49:57;2.90;99.90
3628;DHT22;1830;49.000;12.074;2023-03-05T10:52:28;2.90;99.90
3628;DHT22;1830;49.000;12.074;2023-03-05T10:54:56;3.00;99.90
3628;DHT22;1830;49.000;12.074;2023-03-05T10:57:24;3.10;99.90
3628;DHT22;1830;49.000;12.074;2023-03-05T10:59:53;3.20;99.90
3628;DHT22;1830;49.000;12.074;2023-03-05T11:02:23;3.10;99.90
3628;DHT22;1830;49.000;12.074;2023-03-05T11:04:51;3.20;99.90
3628;DHT22;1830;49.000;12.074;2023-03-05T11:07:31;3.30;99.90
3628;DHT22;1830;49.000;12.074;2023-03-05T11:10:09;3.10;99.90
3628;DHT22;1830;49.000;12.074;2023-03-05T11:12:39;3.10;99.90
3628;DHT22;1830;49.000;12.074;2023-03-05T11:15:23;3.20;99.90
3628;DHT22;1830;49.000;12.074;2023-03-05T11:18:23;3.20;99.90
3628;DHT22;1830;49.000;12.074;2023-03-05T11:20:51;3.00;99.90
3628;DHT22;1830;49.000;12.074;2023-03-05T11:23:19;3.10;99.90
3628;DHT22;1830;49.000;12.074;2023-03-05T11:25:59;3.30;99.90
3628;DHT22;1830;49.000;12.074;2023-03-05T11:28:29;3.20;99.90
3628;DHT22;1830;49.000;12.074;2023-03-05T11:30:59;3.20;99.90
3628;DHT22;1830;49.000;12.074;2023-03-05T11:33:29;3.20;99.90
3628;DHT22;1830;49.000;12.074;2023-03-05T11:36:21;3.30;99.90
3628;DHT22;1830;49.000;12.074;2023-03-05T11:38:51;3.30;99.90
3628;DHT22;1830;49.000;12.074;2023-03-05T11:41:24;3.40;99.90
3628;DHT22;1830;49.000;12.074;2023-03-05T11:43:52;3.30;99.90
3628;DHT22;1830;49.000;12.074;2023-03-05T11:46:21;3.30;99.90
3628;DHT22;1830;49.000;12.074;2023-03-05T11:48:49;3.20;99.90
3628;DHT22;1830;49.000;12.074;2023-03-05T11:51:21;3.10;99.90
3628;DHT22;1830;49.000;12.074;2023-03-05T11:53:54;3.20;99.90
3628;DHT22;1830;49.000;12.074;2023-03-05T11:56:25;3.10;99.90
3628;DHT22;1830;49.000;12.074;2023-03-05T11:58:58;3.00;99.90
3628;DHT22;1830;49.000;12.074;2023-03-05T12:01:30;3.10;99.90
3628;DHT22;1830;49.000;12.074;2023-03-05T12:03:59;3.20;99.90
3628;DHT22;1830;49.000;12.074;2023-03-05T12:06:28;3.30;99.90
3628;DHT22;1830;49.000;12.074;2023-03-05T12:09:00;3.30;99.90
3628;DHT22;1830;49.000;12.074;2023-03-05T12:11:29;3.30;99.90
3628;DHT22;1830;49.000;12.074;2023-03-05T12:14:03;3.20;99.90
3628;DHT22;1830;49.000;12.074;2023-03-05T12:16:35;3.20;99.90
3628;DHT22;1830;49.000;12.074;2023-03-05T12:19:25;3.30;99.90
3628;DHT22;1830;49.000;12.074;2023-03-05T12:21:55;3.20;99.90
3628;DHT22;1830;49.000;12.074;2023-03-05T12:24:37;3.10;99.90
3628;DHT22;1830;49.000;12.074;2023-03-05T12:27:31;3.10;99.90
3628;DHT22;1830;49.000;12.074;2023-03-05T12:29:59;3.00;99.90
3628;DHT22;1830;49.000;12.074;2023-03-05T12:32:56;3.00;99.90
3628;DHT22;1830;49.000;12.074;2023-03-05T12:35:30;3.00;99.90
3628;DHT22;1830;49.000;12.074;2023-03-05T12:38:19;2.80;99.90
3628;DHT22;1830;49.000;12.074;2023-03-05T12:44:19;3.00;99.90
3628;DHT22;1830;49.000;12.074;2023-03-05T12:47:14;2.90;99.90
3628;DHT22;1830;49.000;12.074;2023-03-05T12:49:45;3.10;99.90
3628;DHT22;1830;49.000;12.074;2023-03-05T12:52:22;3.10;99.90
3628;DHT22;1830;49.000;12.074;2023-03-05T12:57:43;3.20;99.90
3628;DHT22;1830;49.000;12.074;2023-03-05T13:00:15;3.00;99.90
3628;DHT22;1830;49.000;12.074;2023-03-05T13:02:49;3.10;99.90
3628;DHT22;1830;49.000;12.074;2023-03-05T13:05:23;2.80;99.90
3628;DHT22;1830;49.000;12.074;2023-03-05T13:07:52;2.80;99.90
3628;DHT22;1830;49.000;12.074;2023-03-05T13:10:24;2.80;99.90
3628;DHT22;1830;49.000;12.074;2023-03-05T13:12:52;3.00;99.90
3628;DHT22;1830;49.000;12.074;2023-03-05T13:15:21;2.90;99.90
3628;DHT22;1830;49.000;12.074;2023-03-05T13:17:54;3.20;99.90
3628;DHT22;1830;49.000;12.074;2023-03-05T13:20:26;3.00;99.90
3628;DHT22;1830;49.000;12.074;2023-03-05T13:23:13;2.90;99.90
3628;DHT22;1830;49.000;12.074;2023-03-05T13:25:41;3.00;99.90
3628;DHT22;1830;49.000;12.074;2023-03-05T13:28:11;2.90;99.90
3628;DHT22;1830;49.000;12.074;2023-03-05T13:30:38;2.90;99.90
3628;DHT22;1830;49.000;12.074;2023-03-05T13:33:05;2.80;99.90
3628;DHT22;1830;49.000;12.074;2023-03-05T13:35:32;2.80;99.90
3628;DHT22;1830;49.000;12.074;2023-03-05T13:37:59;2.70;99.90
3628;DHT22;1830;49.000;12.074;2023-03-05T13:40:30;2.90;99.90
3628;DHT22;1830;49.000;12.074;2023-03-05T13:43:08;2.90;99.90
3628;DHT22;1830;49.000;12.074;2023-03-05T13:45:35;2.80;99.90
3628;DHT22;1830;49.000;12.074;2023-03-05T13:48:04;2.90;99.90
3628;DHT22;1830;49.000;12.074;2023-03-05T13:50:33;2.80;99.90
3628;DHT22;1830;49.000;12.074;2023-03-05T13:53:13;2.90;99.90
3628;DHT22;1830;49.000;12.074;2023-03-05T13:55:41;2.80;99.90
3628;DHT22;1830;49.000;12.074;2023-03-05T14:01:13;2.80;99.90
3628;DHT22;1830;49.000;12.074;2023-03-05T14:03:41;2.90;99.90
3628;DHT22;1830;49.000;12.074;2023-03-05T14:06:09;3.10;99.90
3628;DHT22;1830;49.000;12.074;2023-03-05T14:08:36;3.00;99.90
3628;DHT22;1830;49.000;12.074;2023-03-05T14:11:16;3.00;99.90
3628;DHT22;1830;49.000;12.074;2023-03-05T14:13:44;3.00;99.90
3628;DHT22;1830;49.000;12.074;2023-03-05T14:16:13;3.10;99.90
3628;DHT22;1830;49.000;12.074;2023-03-05T14:18:51;3.10;99.90
3628;DHT22;1830;49.000;12.074;2023-03-05T14:21:18;3.10;99.90
3628;DHT22;1830;49.000;12.074;2023-03-05T14:23:46;3.00;99.90
3628;DHT22;1830;49.000;12.074;2023-03-05T14:26:25;3.10;99.90
3628;DHT22;1830;49.000;12.074;2023-03-05T14:28:55;3.10;99.90
3628;DHT22;1830;49.000;12.074;2023-03-05T14:31:23;3.00;99.90
3628;DHT22;1830;49.000;12.074;2023-03-05T14:33:51;3.10;99.90
3628;DHT22;1830;49.000;12.074;2023-03-05T14:36:23;2.90;99.90
3628;DHT22;1830;49.000;12.074;2023-03-05T14:38:51;2.90;99.90
3628;DHT22;1830;49.000;12.074;2023-03-05T14:41:36;3.00;99.90
3628;DHT22;1830;49.000;12.074;2023-03-05T14:44:10;3.00;99.90
3628;DHT22;1830;49.000;12.074;2023-03-05T14:46:38;3.00;99.90
3628;DHT22;1830;49.000;12.074;2023-03-05T14:49:05;3.10;99.90
3628;DHT22;1830;49.000;12.074;2023-03-05T14:51:34;3.00;99.90
3628;DHT22;1830;49.000;12.074;2023-03-05T14:54:02;3.10;99.90
3628;DHT22;1830;49.000;12.074;2023-03-05T14:56:31;3.20;99.90
3628;DHT22;1830;49.000;12.074;2023-03-05T14:58:59;3.20;99.90
3628;DHT22;1830;49.000;12.074;2023-03-05T15:01:25;3.10;99.90
3628;DHT22;1830;49.000;12.074;2023-03-05T15:03:52;3.10;99.90
3628;DHT22;1830;49.000;12.074;2023-03-05T15:06:22;3.10;99.90
3628;DHT22;1830;49.000;12.074;2023-03-05T15:08:50;2.90;99.90
3628;DHT22;1830;49.000;12.074;2023-03-05T15:11:17;2.90;99.90
3628;DHT22;1830;49.000;12.074;2023-03-05T15:13:45;3.00;99.90
3628;DHT22;1830;49.000;12.074;2023-03-05T15:16:16;3.00;99.90
3628;DHT22;1830;49.000;12.074;2023-03-05T15:18:43;2.90;99.90
3628;DHT22;1830;49.000;12.074;2023-03-05T15:21:10;2.90;99.90
3628;DHT22;1830;49.000;12.074;2023-03-05T15:23:37;3.00;99.90
3628;DHT22;1830;49.000;12.074;2023-03-05T15:26:06;3.10;99.90
3628;DHT22;1830;49.000;12.074;2023-03-05T15:28:33;3.20;99.90
3628;DHT22;1830;49.000;12.074;2023-03-05T15:31:03;3.20;99.90
3628;DHT22;1830;49.000;12.074;2023-03-05T15:33:31;3.10;99.90
3628;DHT22;1830;49.000;12.074;2023-03-05T15:35:58;3.00;99.90
3628;DHT22;1830;49.000;12.074;2023-03-05T15:38:25;3.10;99.90
3628;DHT22;1830;49.000;12.074;2023-03-05T15:40:52;3.10;99.90
3628;DHT22;1830;49.000;12.074;2023-03-05T15:43:19;3.00;99.90
3628;DHT22;1830;49.000;12.074;2023-03-05T15:45:46;3.10;99.90
3628;DHT22;1830;49.000;12.074;2023-03-05T15:48:14;3.00;99.90
3628;DHT22;1830;49.000;12.074;2023-03-05T15:50:42;2.90;99.90
3628;DHT22;1830;49.000;12.074;2023-03-05T15:53:11;2.90;99.90
3628;DHT22;1830;49.000;12.074;2023-03-05T15:55:40;3.00;99.90
3628;DHT22;1830;49.000;12.074;2023-03-05T15:58:08;3.10;99.90
3628;DHT22;1830;49.000;12.074;2023-03-05T16:00:35;3.00;99.90
3628;DHT22;1830;49.000;12.074;2023-03-05T16:03:03;2.80;99.90
3628;DHT22;1830;49.000;12.074;2023-03-05T16:05:32;2.90;99.90
3628;DHT22;1830;49.000;12.074;2023-03-05T16:07:59;2.90;99.90
3628;DHT22;1830;49.000;12.074;2023-03-05T16:10:27;2.80;99.90
3628;DHT22;1830;49.000;12.074;2023-03-05T16:13:00;2.80;99.90
3628;DHT22;1830;49.000;12.074;2023-03-05T16:15:28;2.80;99.90
3628;DHT22;1830;49.000;12.074;2023-03-05T16:17:58;2.90;99.90
3628;DHT22;1830;49.000;12.074;2023-03-05T16:20:25;2.80;99.90
3628;DHT22;1830;49.000;12.074;2023-03-05T16:22:53;2.80;99.90
3628;DHT22;1830;49.000;12.074;2023-03-05T16:25:20;2.80;99.90
3628;DHT22;1830;49.000;12.074;2023-03-05T16:27:47;2.70;99.90
3628;DHT22;1830;49.000;12.074;2023-03-05T16:30:14;2.60;99.90
3628;DHT22;1830;49.000;12.074;2023-03-05T16:32:41;2.70;99.90
3628;DHT22;1830;49.000;12.074;2023-03-05T16:35:09;2.60;99.90
3628;DHT22;1830;49.000;12.074;2023-03-05T16:37:37;2.60;99.90
3628;DHT22;1830;49.000;12.074;2023-03-05T16:40:08;2.60;99.90
3628;DHT22;1830;49.000;12.074;2023-03-05T16:42:35;2.70;99.90
3628;DHT22;1830;49.000;12.074;2023-03-05T16:45:03;2.70;99.90
3628;DHT22;1830;49.000;12.074;2023-03-05T16:47:29;2.70;99.90
3628;DHT22;1830;49.000;12.074;2023-03-05T16:49:56;2.60;99.90
3628;DHT22;1830;49.000;12.074;2023-03-05T16:52:23;2.60;99.90
3628;DHT22;1830;49.000;12.074;2023-03-05T16:54:50;2.70;99.90
3628;DHT22;1830;49.000;12.074;2023-03-05T16:57:18;2.60;99.90
3628;DHT22;1830;49.000;12.074;2023-03-05T16:59:48;2.60;99.90
3628;DHT22;1830;49.000;12.074;2023-03-05T17:02:15;2.60;99.90
3628;DHT22;1830;49.000;12.074;2023-03-05T17:04:43;2.60;99.90
3628;DHT22;1830;49.000;12.074;2023-03-05T17:07:10;2.70;99.90
3628;DHT22;1830;49.000;12.074;2023-03-05T17:09:37;2.70;99.90
3628;DHT22;1830;49.000;12.074;2023-03-05T17:12:04;2.60;99.90
3628;DHT22;1830;49.000;12.074;2023-03-05T17:14:32;2.60;99.90
3628;DHT22;1830;49.000;12.074;2023-03-05T17:16:59;2.60;99.90
3628;DHT22;1830;49.000;12.074;2023-03-05T17:19:26;2.60;99.90
3628;DHT22;1830;49.000;12.074;2023-03-05T17:21:53;2.80;99.90
3628;DHT22;1830;49.000;12.074;2023-03-05T17:24:20;2.80;99.90
3628;DHT22;1830;49.000;12.074;2023-03-05T17:26:47;3.30;99.90
3628;DHT22;1830;49.000;12.074;2023-03-05T17:29:14;3.00;99.90
3628;DHT22;1830;49.000;12.074;2023-03-05T17:31:44;3.00;99.90
3628;DHT22;1830;49.000;12.074;2023-03-05T17:34:11;2.90;99.90
3628;DHT22;1830;49.000;12.074;2023-03-05T17:36:38;2.80;99.90
3628;DHT22;1830;49.000;12.074;2023-03-05T17:39:05;2.80;99.90
3628;DHT22;1830;49.000;12.074;2023-03-05T17:41:33;2.80;99.90
3628;DHT22;1830;49.000;12.074;2023-03-05T17:44:00;2.80;99.90
3628;DHT22;1830;49.000;12.074;2023-03-05T17:46:26;2.70;99.90
3628;DHT22;1830;49.000;12.074;2023-03-05T17:48:55;2.80;99.90
3628;DHT22;1830;49.000;12.074;2023-03-05T17:51:21;2.80;99.90
3628;DHT22;1830;49.000;12.074;2023-03-05T17:53:48;2.60;99.90
3628;DHT22;1830;49.000;12.074;2023-03-05T17:56:15;2.70;99.90
3628;DHT22;1830;49.000;12.074;2023-03-05T17:58:44;2.60;99.90
3628;DHT22;1830;49.000;12.074;2023-03-05T18:01:11;2.70;99.90
3628;DHT22;1830;49.000;12.074;2023-03-05T18:03:46;2.70;99.90
3628;DHT22;1830;49.000;12.074;2023-03-05T18:06:15;2.70;99.90
3628;DHT22;1830;49.000;12.074;2023-03-05T18:08:41;2.70;99.90
3628;DHT22;1830;49.000;12.074;2023-03-05T18:11:08;2.70;99.90
3628;DHT22;1830;49.000;12.074;2023-03-05T18:13:35;2.70;99.90
3628;DHT22;1830;49.000;12.074;2023-03-05T18:16:02;2.60;99.90
3628;DHT22;1830;49.000;12.074;2023-03-05T18:18:29;2.50;99.90
3628;DHT22;1830;49.000;12.074;2023-03-05T18:20:56;2.40;99.90
3628;DHT22;1830;49.000;12.074;2023-03-05T18:23:24;2.40;99.90
3628;DHT22;1830;49.000;12.074;2023-03-05T18:25:51;2.50;99.90
3628;DHT22;1830;49.000;12.074;2023-03-05T18:28:17;2.50;99.90
3628;DHT22;1830;49.000;12.074;2023-03-05T18:30:45;2.60;99.90
3628;DHT22;1830;49.000;12.074;2023-03-05T18:33:17;2.70;99.90
3628;DHT22;1830;49.000;12.074;2023-03-05T18:35:44;2.60;99.90
3628;DHT22;1830;49.000;12.074;2023-03-05T18:38:14;2.60;99.90
3628;DHT22;1830;49.000;12.074;2023-03-05T18:40:42;2.50;99.90
3628;DHT22;1830;49.000;12.074;2023-03-05T18:43:10;2.60;99.90
3628;DHT22;1830;49.000;12.074;2023-03-05T18:45:37;2.60;99.90
3628;DHT22;1830;49.000;12.074;2023-03-05T18:48:04;2.40;99.90
3628;DHT22;1830;49.000;12.074;2023-03-05T18:50:31;2.30;99.90
3628;DHT22;1830;49.000;12.074;2023-03-05T18:52:57;2.40;99.90
3628;DHT22;1830;49.000;12.074;2023-03-05T18:55:26;2.50;99.90
3628;DHT22;1830;49.000;12.074;2023-03-05T18:57:56;2.60;99.90
3628;DHT22;1830;49.000;12.074;2023-03-05T19:00:24;2.60;99.90
3628;DHT22;1830;49.000;12.074;2023-03-05T19:02:52;2.40;99.90
3628;DHT22;1830;49.000;12.074;2023-03-05T19:05:19;2.30;99.90
3628;DHT22;1830;49.000;12.074;2023-03-05T19:07:46;2.30;99.90
3628;DHT22;1830;49.000;12.074;2023-03-05T19:10:14;2.40;99.90
3628;DHT22;1830;49.000;12.074;2023-03-05T19:12:42;2.40;99.90
3628;DHT22;1830;49.000;12.074;2023-03-05T19:15:16;2.40;99.90
3628;DHT22;1830;49.000;12.074;2023-03-05T19:17:42;2.20;99.90
3628;DHT22;1830;49.000;12.074;2023-03-05T19:20:11;2.20;99.90
3628;DHT22;1830;49.000;12.074;2023-03-05T19:22:38;2.20;99.90
3628;DHT22;1830;49.000;12.074;2023-03-05T19:25:06;2.30;99.90
3628;DHT22;1830;49.000;12.074;2023-03-05T19:27:33;2.20;99.90
3628;DHT22;1830;49.000;12.074;2023-03-05T19:30:00;2.10;99.90
3628;DHT22;1830;49.000;12.074;2023-03-05T19:32:29;2.10;99.90
3628;DHT22;1830;49.000;12.074;2023-03-05T19:34:57;2.10;99.90
3628;DHT22;1830;49.000;12.074;2023-03-05T19:37:24;2.10;99.90
3628;DHT22;1830;49.000;12.074;2023-03-05T19:39:53;2.10;99.90
3628;DHT22;1830;49.000;12.074;2023-03-05T19:42:20;2.10;99.90
3628;DHT22;1830;49.000;12.074;2023-03-05T19:44:49;2.00;99.90
3628;DHT22;1830;49.000;12.074;2023-03-05T19:47:15;2.10;99.90
3628;DHT22;1830;49.000;12.074;2023-03-05T19:49:45;2.00;99.90
3628;DHT22;1830;49.000;12.074;2023-03-05T19:52:12;2.00;99.90
3628;DHT22;1830;49.000;12.074;2023-03-05T19:54:40;2.00;99.90
3628;DHT22;1830;49.000;12.074;2023-03-05T19:57:07;1.90;99.90
3628;DHT22;1830;49.000;12.074;2023-03-05T19:59:35;1.90;99.90
3628;DHT22;1830;49.000;12.074;2023-03-05T20:02:05;1.90;99.90
3628;DHT22;1830;49.000;12.074;2023-03-05T20:04:32;1.80;99.90
3628;DHT22;1830;49.000;12.074;2023-03-05T20:07:01;1.80;99.90
3628;DHT22;1830;49.000;12.074;2023-03-05T20:09:28;1.80;99.90
3628;DHT22;1830;49.000;12.074;2023-03-05T20:11:55;1.80;99.90
3628;DHT22;1830;49.000;12.074;2023-03-05T20:14:22;1.80;99.90
3628;DHT22;1830;49.000;12.074;2023-03-05T20:16:49;1.80;99.90
3628;DHT22;1830;49.000;12.074;2023-03-05T20:19:16;1.80;99.90
3628;DHT22;1830;49.000;12.074;2023-03-05T20:21:44;1.80;99.90
3628;DHT22;1830;49.000;12.074;2023-03-05T20:24:15;1.70;99.90
3628;DHT22;1830;49.000;12.074;2023-03-05T20:26:43;1.80;99.90
3628;DHT22;1830;49.000;12.074;2023-03-05T20:29:11;1.70;99.90
3628;DHT22;1830;49.000;12.074;2023-03-05T20:31:39;1.70;99.90
3628;DHT22;1830;49.000;12.074;2023-03-05T20:34:08;1.70;99.90
3628;DHT22;1830;49.000;12.074;2023-03-05T20:36:35;1.70;99.90
3628;DHT22;1830;49.000;12.074;2023-03-05T20:39:03;1.60;99.90
3628;DHT22;1830;49.000;12.074;2023-03-05T20:41:33;1.60;99.90
3628;DHT22;1830;49.000;12.074;2023-03-05T20:44:00;1.60;99.90
3628;DHT22;1830;49.000;12.074;2023-03-05T20:46:30;1.50;99.90
3628;DHT22;1830;49.000;12.074;2023-03-05T20:48:58;1.50;99.90
3628;DHT22;1830;49.000;12.074;2023-03-05T20:51:27;1.50;99.90
3628;DHT22;1830;49.000;12.074;2023-03-05T20:53:56;1.50;99.90
3628;DHT22;1830;49.000;12.074;2023-03-05T20:56:23;1.40;99.90
3628;DHT22;1830;49.000;12.074;2023-03-05T20:58:52;1.40;99.90
3628;DHT22;1830;49.000;12.074;2023-03-05T21:01:19;1.40;99.90
3628;DHT22;1830;49.000;12.074;2023-03-05T21:03:46;1.30;99.90
3628;DHT22;1830;49.000;12.074;2023-03-05T21:06:14;1.40;99.90
3628;DHT22;1830;49.000;12.074;2023-03-05T21:08:41;1.40;99.90
3628;DHT22;1830;49.000;12.074;2023-03-05T21:11:09;1.40;99.90
3628;DHT22;1830;49.000;12.074;2023-03-05T21:13:36;1.50;99.90
3628;DHT22;1830;49.000;12.074;2023-03-05T21:16:06;1.50;99.90
3628;DHT22;1830;49.000;12.074;2023-03-05T21:18:34;1.50;99.90
3628;DHT22;1830;49.000;12.074;2023-03-05T21:21:01;1.50;99.90
3628;DHT22;1830;49.000;12.074;2023-03-05T21:23:28;1.50;99.90
3628;DHT22;1830;49.000;12.074;2023-03-05T21:25:55;1.50;99.90
3628;DHT22;1830;49.000;12.074;2023-03-05T21:28:22;1.50;99.90
3628;DHT22;1830;49.000;12.074;2023-03-05T21:30:50;1.40;99.90
3628;DHT22;1830;49.000;12.074;2023-03-05T21:33:21;1.40;99.90
3628;DHT22;1830;49.000;12.074;2023-03-05T21:35:49;1.40;99.90
3628;DHT22;1830;49.000;12.074;2023-03-05T21:38:17;1.40;99.90
3628;DHT22;1830;49.000;12.074;2023-03-05T21:40:45;1.40;99.90
3628;DHT22;1830;49.000;12.074;2023-03-05T21:43:15;1.50;99.90
3628;DHT22;1830;49.000;12.074;2023-03-05T21:45:43;1.60;99.90
3628;DHT22;1830;49.000;12.074;2023-03-05T21:48:11;1.60;99.90
3628;DHT22;1830;49.000;12.074;2023-03-05T21:50:41;1.40;99.90
3628;DHT22;1830;49.000;12.074;2023-03-05T21:53:08;1.40;99.90
3628;DHT22;1830;49.000;12.074;2023-03-05T21:55:37;1.40;99.90
3628;DHT22;1830;49.000;12.074;2023-03-05T21:58:10;1.30;99.90
3628;DHT22;1830;49.000;12.074;2023-03-05T22:00:37;1.30;99.90
3628;DHT22;1830;49.000;12.074;2023-03-05T22:03:04;1.40;99.90
3628;DHT22;1830;49.000;12.074;2023-03-05T22:05:31;1.40;99.90
3628;DHT22;1830;49.000;12.074;2023-03-05T22:07:59;1.50;99.90
3628;DHT22;1830;49.000;12.074;2023-03-05T22:10:26;1.50;99.90
3628;DHT22;1830;49.000;12.074;2023-03-05T22:12:53;1.50;99.90
3628;DHT22;1830;49.000;12.074;2023-03-05T22:15:27;1.50;99.90
3628;DHT22;1830;49.000;12.074;2023-03-05T22:17:54;1.50;99.90
3628;DHT22;1830;49.000;12.074;2023-03-05T22:20:21;1.60;99.90
3628;DHT22;1830;49.000;12.074;2023-03-05T22:22:48;1.50;99.90
3628;DHT22;1830;49.000;12.074;2023-03-05T22:25:17;1.40;99.90
3628;DHT22;1830;49.000;12.074;2023-03-05T22:27:44;1.50;99.90
3628;DHT22;1830;49.000;12.074;2023-03-05T22:30:12;1.50;99.90
3628;DHT22;1830;49.000;12.074;2023-03-05T22:32:39;1.40;99.90
3628;DHT22;1830;49.000;12.074;2023-03-05T22:35:08;1.40;99.90